createdAt,value
2017-12-14T00:01:15.215Z,4.24
2017-12-14T00:02:37.215Z,4.23
2017-12-14T00:03:59.035Z,4.24
2017-12-14T00:05:21.322Z,4.32
2017-12-14T00:06:43.017Z,4.3
2017-12-14T00:08:04.705Z,4.42
2017-12-14T00:09:26.814Z,4.5
2017-12-14T00:10:48.370Z,4.41
2017-12-14T00:12:10.140Z,4.52
2017-12-14T00:13:32.085Z,4.65
2017-12-14T00:14:53.912Z,4.63
2017-12-14T00:16:15.523Z,4.72
2017-12-14T00:17:37.214Z,4.84
2017-12-14T00:18:58.649Z,4.73
2017-12-14T00:20:20.344Z,4.84
2017-12-14T00:21:41.781Z,4.88
2017-12-14T00:23:03.741Z,4.96
2017-12-14T00:24:25.713Z,4.91
2017-12-14T00:25:47.144Z,5.04
2017-12-14T00:27:08.822Z,5.03
2017-12-14T00:28:30.243Z,5
2017-12-14T00:29:51.693Z,5.07
2017-12-14T00:31:13.404Z,5.15
2017-12-14T00:32:35.098Z,5.13
2017-12-14T00:33:56.856Z,5.15
2017-12-14T00:35:18.814Z,5.22
2017-12-14T00:36:40.526Z,5.2
2017-12-14T00:38:02.604Z,5.24
2017-12-14T00:39:24.293Z,5.24
2017-12-14T00:40:45.704Z,5.27
2017-12-14T00:42:07.800Z,5.35
2017-12-14T00:43:29.774Z,5.31
2017-12-14T00:44:51.188Z,5.36
2017-12-14T00:46:12.984Z,5.39
2017-12-14T00:47:34.945Z,5.33
2017-12-14T00:48:57.164Z,5.43
2017-12-14T00:50:18.854Z,5.36
2017-12-14T00:51:40.815Z,5.35
2017-12-14T00:53:02.785Z,5.27
2017-12-14T00:54:24.524Z,5.35
2017-12-14T00:55:46.383Z,5.3
2017-12-14T00:57:08.346Z,5.22
2017-12-14T00:58:29.815Z,5.33
2017-12-14T00:59:51.803Z,5.33
2017-12-14T01:01:13.483Z,5.3
2017-12-14T01:02:35.434Z,5.33
2017-12-14T01:03:57.115Z,5.24
2017-12-14T01:05:18.889Z,5.28
2017-12-14T01:06:41.135Z,5.25
2017-12-14T01:08:03.485Z,5.28
2017-12-14T01:09:25.794Z,5.22
2017-12-14T01:10:47.559Z,5.17
2017-12-14T01:12:09.507Z,5.07
2017-12-14T01:13:31.498Z,5.06
2017-12-14T01:14:53.548Z,5.03
2017-12-14T01:16:15.513Z,5.03
2017-12-14T01:17:37.213Z,5
2017-12-14T01:18:58.920Z,4.91
2017-12-14T01:20:20.133Z,4.94
2017-12-14T01:21:42.461Z,5
2017-12-14T01:23:04.154Z,5.02
2017-12-14T01:24:26.356Z,4.94
2017-12-14T01:25:48.232Z,4.99
2017-12-14T01:27:09.685Z,4.99
2017-12-14T01:28:31.103Z,4.91
2017-12-14T01:29:52.501Z,4.99
2017-12-14T01:31:14.243Z,4.91
2017-12-14T01:32:35.964Z,4.89
2017-12-14T01:33:58.181Z,4.89
2017-12-14T01:35:19.604Z,4.84
2017-12-14T01:36:41.296Z,4.91
2017-12-14T01:38:02.999Z,4.97
2017-12-14T01:39:24.476Z,4.94
2017-12-14T01:40:45.729Z,4.99
2017-12-14T01:42:07.964Z,4.99
2017-12-14T01:43:30.431Z,4.97
2017-12-14T01:44:51.989Z,5.02
2017-12-14T01:46:13.651Z,4.88
2017-12-14T01:47:35.633Z,4.92
2017-12-14T01:48:57.663Z,4.88
2017-12-14T01:50:19.704Z,4.82
2017-12-14T01:51:41.393Z,4.65
2017-12-14T01:53:03.073Z,4.65
2017-12-14T01:54:24.583Z,4.48
2017-12-14T01:55:46.273Z,4.42
2017-12-14T01:57:07.735Z,4.42
2017-12-14T01:58:29.697Z,4.3
2017-12-14T01:59:51.384Z,4.27
2017-12-14T02:01:13.195Z,4.18
2017-12-14T02:02:35.213Z,4.11
2017-12-14T02:03:57.036Z,4.16
2017-12-14T02:05:18.716Z,4.05
2017-12-14T02:06:40.392Z,3.98
2017-12-14T02:08:02.356Z,4
2017-12-14T02:09:24.587Z,3.97
2017-12-14T02:10:46.563Z,4.04
2017-12-14T02:12:08.261Z,3.97
2017-12-14T02:13:30.239Z,3.98
2017-12-14T02:14:51.902Z,3.93
2017-12-14T02:16:13.973Z,3.88
2017-12-14T02:17:35.415Z,3.8
2017-12-14T02:18:57.103Z,3.86
2017-12-14T02:20:19.073Z,3.88
2017-12-14T02:21:40.497Z,3.9
2017-12-14T02:23:02.464Z,3.94
2017-12-14T02:24:24.723Z,3.91
2017-12-14T02:25:46.164Z,3.93
2017-12-14T02:27:07.593Z,4.04
2017-12-14T02:28:29.550Z,4.05
2017-12-14T02:29:51.357Z,4.02
2017-12-14T02:31:13.647Z,4.18
2017-12-14T02:32:35.865Z,4.24
2017-12-14T02:33:57.836Z,4.29
2017-12-14T02:35:19.274Z,4.37
2017-12-14T02:36:40.953Z,4.4
2017-12-14T02:38:02.874Z,4.51
2017-12-14T02:39:24.485Z,4.5
2017-12-14T02:40:46.260Z,4.51
2017-12-14T02:42:08.223Z,4.48
2017-12-14T02:43:29.653Z,4.42
2017-12-14T02:44:51.094Z,4.42
2017-12-14T02:46:12.784Z,4.37
2017-12-14T02:47:34.487Z,4.33
2017-12-14T02:48:56.574Z,4.32
2017-12-14T02:50:17.724Z,4.34
2017-12-14T02:51:39.623Z,4.45
2017-12-14T02:53:01.316Z,4.37
2017-12-14T02:54:23.013Z,4.32
2017-12-14T02:55:44.481Z,4.15
2017-12-14T02:57:06.480Z,4.16
2017-12-14T02:58:28.442Z,4.12
2017-12-14T02:59:49.853Z,4.05
2017-12-14T03:01:11.543Z,3.96
2017-12-14T03:02:33.241Z,4.06
2017-12-14T03:03:55.472Z,4.05
2017-12-14T03:05:16.892Z,3.96
2017-12-14T03:06:38.642Z,4.02
2017-12-14T03:08:00.333Z,3.91
2017-12-14T03:09:22.043Z,3.9
2017-12-14T03:10:43.781Z,3.98
2017-12-14T03:12:05.536Z,3.94
2017-12-14T03:13:27.203Z,4.05
2017-12-14T03:14:48.356Z,4.02
2017-12-14T03:16:09.761Z,3.98
2017-12-14T03:17:31.452Z,4.04
2017-12-14T03:18:52.925Z,4.15
2017-12-14T03:20:14.931Z,4.23
2017-12-14T03:21:36.945Z,4.32
2017-12-14T03:22:58.916Z,4.33
2017-12-14T03:24:20.888Z,4.4
2017-12-14T03:25:42.593Z,4.58
2017-12-14T03:27:04.283Z,4.65
2017-12-14T03:28:25.974Z,4.65
2017-12-14T03:29:48.183Z,4.72
2017-12-14T03:31:09.923Z,4.75
2017-12-14T03:32:31.623Z,4.78
2017-12-14T03:33:53.572Z,4.73
2017-12-14T03:35:15.032Z,4.66
2017-12-14T03:36:36.446Z,4.54
2017-12-14T03:37:58.374Z,4.54
2017-12-14T03:39:19.693Z,4.5
2017-12-14T03:40:41.503Z,4.44
2017-12-14T03:42:03.481Z,4.42
2017-12-14T03:43:25.166Z,4.41
2017-12-14T03:44:47.145Z,4.37
2017-12-14T03:46:09.424Z,4.54
2017-12-14T03:47:31.103Z,4.45
2017-12-14T03:48:53.083Z,4.51
2017-12-14T03:50:14.783Z,4.5
2017-12-14T03:51:36.784Z,4.48
2017-12-14T03:52:58.463Z,4.54
2017-12-14T03:54:19.673Z,4.44
2017-12-14T03:55:41.634Z,4.44
2017-12-14T03:57:03.323Z,4.34
2017-12-14T03:58:24.482Z,4.37
2017-12-14T03:59:46.203Z,4.36
2017-12-14T04:01:08.187Z,4.41
2017-12-14T04:02:29.865Z,4.45
2017-12-14T04:03:51.919Z,4.52
2017-12-14T04:05:13.994Z,4.47
2017-12-14T04:06:34.903Z,4.36
2017-12-14T04:07:56.993Z,4.4
2017-12-14T04:09:18.959Z,4.4
2017-12-14T04:10:40.643Z,4.44
2017-12-14T04:12:01.914Z,4.6
2017-12-14T04:13:23.870Z,4.55
2017-12-14T04:14:45.856Z,4.48
2017-12-14T04:16:07.876Z,4.5
2017-12-14T04:17:30.024Z,4.47
2017-12-14T04:18:51.522Z,4.48
2017-12-14T04:20:12.696Z,4.51
2017-12-14T04:21:33.835Z,4.52
2017-12-14T04:22:55.000Z,4.48
2017-12-14T04:24:16.803Z,4.54
2017-12-14T04:25:38.498Z,4.52
2017-12-14T04:27:00.541Z,4.69
2017-12-14T04:28:21.954Z,4.67
2017-12-14T04:29:43.389Z,4.67
2017-12-14T04:31:05.096Z,4.7
2017-12-14T04:32:27.343Z,4.77
2017-12-14T04:33:49.044Z,4.8
2017-12-14T04:35:11.244Z,4.82
2017-12-14T04:36:32.933Z,4.8
2017-12-14T04:37:54.631Z,4.73
2017-12-14T04:39:16.644Z,4.7
2017-12-14T04:40:38.872Z,4.8
2017-12-14T04:42:00.932Z,4.91
2017-12-14T04:43:22.893Z,4.89
2017-12-14T04:44:44.314Z,4.86
2017-12-14T04:46:05.756Z,4.88
2017-12-14T04:47:27.753Z,4.85
2017-12-14T04:48:49.706Z,4.85
2017-12-14T04:50:11.704Z,4.89
2017-12-14T04:51:33.665Z,4.86
2017-12-14T04:52:55.354Z,4.86
2017-12-14T04:54:16.507Z,4.73
2017-12-14T04:55:38.051Z,4.85
2017-12-14T04:57:00.320Z,4.77
2017-12-14T04:58:22.004Z,4.82
2017-12-14T04:59:43.524Z,4.86
2017-12-14T05:01:05.484Z,4.89
2017-12-14T05:02:27.464Z,4.86
2017-12-14T05:03:49.056Z,4.84
2017-12-14T05:05:11.016Z,4.92
2017-12-14T05:06:32.774Z,4.88
2017-12-14T05:07:55.054Z,4.85
2017-12-14T05:09:16.818Z,4.86
2017-12-14T05:10:38.237Z,4.97
2017-12-14T05:11:59.812Z,4.99
2017-12-14T05:13:21.346Z,4.99
2017-12-14T05:14:43.567Z,5.02
2017-12-14T05:16:05.090Z,4.99
2017-12-14T05:17:26.786Z,4.97
2017-12-14T05:18:48.258Z,5.04
2017-12-14T05:20:09.940Z,5.06
2017-12-14T05:21:32.161Z,5
2017-12-14T05:22:54.166Z,5.1
2017-12-14T05:24:16.174Z,5.1
2017-12-14T05:25:37.594Z,5.03
2017-12-14T05:26:59.581Z,5.04
2017-12-14T05:28:21.378Z,5.04
2017-12-14T05:29:43.366Z,4.97
2017-12-14T05:31:05.328Z,4.89
2017-12-14T05:32:26.757Z,4.96
2017-12-14T05:33:48.456Z,4.86
2017-12-14T05:35:10.269Z,4.8
2017-12-14T05:36:32.284Z,4.84
2017-12-14T05:37:53.774Z,4.84
2017-12-14T05:39:15.564Z,4.78
2017-12-14T05:40:37.574Z,4.86
2017-12-14T05:41:59.115Z,4.78
2017-12-14T05:43:20.654Z,4.82
2017-12-14T05:44:42.606Z,4.85
2017-12-14T05:46:04.628Z,4.82
2017-12-14T05:47:26.604Z,4.82
2017-12-14T05:48:48.035Z,4.86
2017-12-14T05:50:10.324Z,4.96
2017-12-14T05:51:32.697Z,4.92
2017-12-14T05:52:54.383Z,5
2017-12-14T05:54:16.572Z,5
2017-12-14T05:55:38.564Z,5
2017-12-14T05:57:00.529Z,5.03
2017-12-14T05:58:22.294Z,5.06
2017-12-14T05:59:44.335Z,5.13
2017-12-14T06:01:06.344Z,5.13
2017-12-14T06:02:28.127Z,5.22
2017-12-14T06:03:50.105Z,5.17
2017-12-14T06:05:12.343Z,5.17
2017-12-14T06:06:33.774Z,5.12
2017-12-14T06:07:56.224Z,5.17
2017-12-14T06:09:17.676Z,5.17
2017-12-14T06:10:39.375Z,5.17
2017-12-14T06:12:01.444Z,5.15
2017-12-14T06:13:23.782Z,5.1
2017-12-14T06:14:45.487Z,5.21
2017-12-14T06:16:07.751Z,5.12
2017-12-14T06:17:29.434Z,5.07
2017-12-14T06:18:51.470Z,5.17
2017-12-14T06:20:13.435Z,5.07
2017-12-14T06:21:34.984Z,5.15
2017-12-14T06:22:57.519Z,5.06
2017-12-14T06:24:18.762Z,5.1
2017-12-14T06:25:41.074Z,5.06
2017-12-14T06:27:03.241Z,5.07
2017-12-14T06:28:25.024Z,5.04
2017-12-14T06:29:46.719Z,5.03
2017-12-14T06:31:07.893Z,5.07
2017-12-14T06:32:29.374Z,5.12
2017-12-14T06:33:51.080Z,5.13
2017-12-14T06:35:13.070Z,5.1
2017-12-14T06:36:34.883Z,5.09
2017-12-14T06:37:56.324Z,5.09
2017-12-14T06:39:18.293Z,5.1
2017-12-14T06:40:40.417Z,5.13
2017-12-14T06:42:02.382Z,5.21
2017-12-14T06:43:24.339Z,5.17
2017-12-14T06:44:46.334Z,5.17
2017-12-14T06:46:08.582Z,5.12
2017-12-14T06:47:30.003Z,5.1
2017-12-14T06:48:51.764Z,5.03
2017-12-14T06:50:12.924Z,4.97
2017-12-14T06:51:34.902Z,5.02
2017-12-14T06:52:56.054Z,5.02
2017-12-14T06:54:17.341Z,4.88
2017-12-14T06:55:39.033Z,4.92
2017-12-14T06:57:00.862Z,4.94
2017-12-14T06:58:22.033Z,4.89
2017-12-14T06:59:43.723Z,4.96
2017-12-14T07:01:05.913Z,4.97
2017-12-14T07:02:27.983Z,5.03
2017-12-14T07:03:49.198Z,5.04
2017-12-14T07:05:11.431Z,5.03
2017-12-14T07:06:33.121Z,5.02
2017-12-14T07:07:54.823Z,5.13
2017-12-14T07:09:16.773Z,5.04
2017-12-14T07:10:38.224Z,5.04
2017-12-14T07:11:59.653Z,5.02
2017-12-14T07:13:21.423Z,4.97
2017-12-14T07:14:42.950Z,4.99
2017-12-14T07:16:04.650Z,4.96
2017-12-14T07:17:26.622Z,4.91
2017-12-14T07:18:48.562Z,4.96
2017-12-14T07:20:10.033Z,5.06
2017-12-14T07:21:31.893Z,4.99
2017-12-14T07:22:53.911Z,4.99
2017-12-14T07:24:15.594Z,4.94
2017-12-14T07:25:37.824Z,5.03
2017-12-14T07:26:59.940Z,5.02
2017-12-14T07:28:22.215Z,5.07
2017-12-14T07:29:43.885Z,5.04
2017-12-14T07:31:05.373Z,5.02
2017-12-14T07:32:27.073Z,5
2017-12-14T07:33:48.789Z,5.03
2017-12-14T07:35:10.744Z,5
2017-12-14T07:36:32.435Z,5.02
2017-12-14T07:37:53.853Z,5.07
2017-12-14T07:39:15.284Z,5.04
2017-12-14T07:40:37.243Z,5.04
2017-12-14T07:41:58.984Z,5.07
2017-12-14T07:43:20.961Z,5.15
2017-12-14T07:44:42.683Z,5.13
2017-12-14T07:46:04.695Z,5.12
2017-12-14T07:47:26.710Z,5.12
2017-12-14T07:48:48.159Z,5.06
2017-12-14T07:50:09.595Z,5.12
2017-12-14T07:51:31.123Z,5.17
2017-12-14T07:52:53.363Z,5.18
2017-12-14T07:54:15.052Z,5.21
2017-12-14T07:55:36.759Z,5.21
2017-12-14T07:56:58.902Z,5.18
2017-12-14T07:58:20.872Z,5.18
2017-12-14T07:59:42.048Z,5.12
2017-12-14T08:01:03.557Z,5.18
2017-12-14T08:02:24.991Z,5.17
2017-12-14T08:03:46.741Z,5.12
2017-12-14T08:05:08.301Z,5.2
2017-12-14T08:06:30.013Z,5.17
2017-12-14T08:07:51.443Z,5.18
2017-12-14T08:09:12.872Z,5.12
2017-12-14T08:10:34.603Z,5.17
2017-12-14T08:11:56.384Z,5.13
2017-12-14T08:13:18.382Z,5.15
2017-12-14T08:14:40.616Z,5.12
2017-12-14T08:16:02.721Z,5.13
2017-12-14T08:17:24.204Z,5.07
2017-12-14T08:18:45.631Z,5.13
2017-12-14T08:20:06.846Z,5
2017-12-14T08:21:29.040Z,5.06
2017-12-14T08:22:51.004Z,5.1
2017-12-14T08:24:13.413Z,5.06
2017-12-14T08:25:35.377Z,5.12
2017-12-14T08:26:57.066Z,5.07
2017-12-14T08:28:18.757Z,5.09
2017-12-14T08:29:40.716Z,5.06
2017-12-14T08:31:02.982Z,5.02
2017-12-14T08:32:24.486Z,5.02
2017-12-14T08:33:46.774Z,5.02
2017-12-14T08:35:07.955Z,4.94
2017-12-14T08:36:29.383Z,5.04
2017-12-14T08:37:51.192Z,5.03
2017-12-14T08:39:13.440Z,5.03
2017-12-14T08:40:35.684Z,5.02
2017-12-14T08:41:57.184Z,4.92
2017-12-14T08:43:19.142Z,4.86
2017-12-14T08:44:40.644Z,4.85
2017-12-14T08:46:02.877Z,4.84
2017-12-14T08:47:24.342Z,4.89
2017-12-14T08:48:46.433Z,4.88
2017-12-14T08:50:08.413Z,4.78
2017-12-14T08:51:30.096Z,4.86
2017-12-14T08:52:52.072Z,4.77
2017-12-14T08:54:14.303Z,4.85
2017-12-14T08:55:35.744Z,4.78
2017-12-14T08:56:57.438Z,4.88
2017-12-14T08:58:19.134Z,4.85
2017-12-14T08:59:40.893Z,4.84
2017-12-14T09:01:02.713Z,4.86
2017-12-14T09:02:24.402Z,4.73
2017-12-14T09:03:46.423Z,4.89
2017-12-14T09:05:07.844Z,4.88
2017-12-14T09:06:29.793Z,4.84
2017-12-14T09:07:52.091Z,4.84
2017-12-14T09:09:13.794Z,4.75
2017-12-14T09:10:35.541Z,4.84
2017-12-14T09:11:57.503Z,4.77
2017-12-14T09:13:19.459Z,4.75
2017-12-14T09:14:41.242Z,4.72
2017-12-14T09:16:03.203Z,4.67
2017-12-14T09:17:24.703Z,4.67
2017-12-14T09:18:46.922Z,4.7
2017-12-14T09:20:08.341Z,4.63
2017-12-14T09:21:30.303Z,4.5
2017-12-14T09:22:52.032Z,4.37
2017-12-14T09:24:13.722Z,4.37
2017-12-14T09:25:35.164Z,4.32
2017-12-14T09:26:57.123Z,4.23
2017-12-14T09:28:18.972Z,4.12
2017-12-14T09:29:41.215Z,4.11
2017-12-14T09:31:03.163Z,4.14
2017-12-14T09:32:24.974Z,4.26
2017-12-14T09:33:47.030Z,4.26
2017-12-14T09:35:08.737Z,4.23
2017-12-14T09:36:31.094Z,4.3
2017-12-14T09:37:53.051Z,4.45
2017-12-14T09:39:14.859Z,4.5
2017-12-14T09:40:36.563Z,4.6
2017-12-14T09:41:57.734Z,4.67
2017-12-14T09:43:19.973Z,4.75
2017-12-14T09:44:41.193Z,4.84
2017-12-14T09:46:03.267Z,4.85
2017-12-14T09:47:25.293Z,5
2017-12-14T09:48:47.552Z,4.99
2017-12-14T09:50:08.994Z,4.85
2017-12-14T09:51:31.463Z,4.88
2017-12-14T09:52:53.432Z,4.82
2017-12-14T09:54:15.120Z,4.84
2017-12-14T09:55:36.812Z,4.82
2017-12-14T09:56:59.204Z,4.88
2017-12-14T09:58:21.254Z,4.75
2017-12-14T09:59:42.969Z,4.97
2017-12-14T10:01:05.304Z,4.89
2017-12-14T10:02:27.536Z,4.96
2017-12-14T10:03:48.994Z,5.02
2017-12-14T10:05:11.092Z,5.04
2017-12-14T10:06:33.069Z,5.04
2017-12-14T10:07:54.244Z,5.03
2017-12-14T10:09:15.663Z,5.12
2017-12-14T10:10:37.077Z,5.21
2017-12-14T10:11:58.525Z,5.36
2017-12-14T10:13:20.274Z,5.46
2017-12-14T10:14:41.693Z,5.58
2017-12-14T10:16:03.752Z,5.57
2017-12-14T10:17:25.844Z,5.53
2017-12-14T10:18:47.537Z,5.46
2017-12-14T10:20:09.328Z,5.51
2017-12-14T10:21:31.058Z,5.38
2017-12-14T10:22:53.377Z,5.36
2017-12-14T10:24:15.074Z,5.33
2017-12-14T10:25:37.063Z,5.31
2017-12-14T10:26:58.774Z,5.4
2017-12-14T10:28:20.743Z,5.4
2017-12-14T10:29:42.691Z,5.4
2017-12-14T10:31:04.386Z,5.35
2017-12-14T10:32:26.346Z,5.35
2017-12-14T10:33:48.589Z,5.42
2017-12-14T10:35:10.554Z,5.46
2017-12-14T10:36:32.819Z,5.35
2017-12-14T10:37:54.780Z,5.28
2017-12-14T10:39:16.213Z,5.15
2017-12-14T10:40:37.474Z,5.18
2017-12-14T10:41:58.953Z,5.21
2017-12-14T10:43:21.193Z,5.31
2017-12-14T10:44:43.321Z,5.39
2017-12-14T10:46:05.443Z,5.28
2017-12-14T10:47:27.406Z,5.33
2017-12-14T10:48:49.433Z,5.27
2017-12-14T10:50:11.675Z,5.28
2017-12-14T10:51:33.350Z,5.3
2017-12-14T10:52:54.896Z,5.42
2017-12-14T10:54:16.595Z,5.42
2017-12-14T10:55:38.565Z,5.33
2017-12-14T10:56:59.734Z,5.35
2017-12-14T10:58:21.564Z,5.33
2017-12-14T10:59:43.329Z,5.28
2017-12-14T11:01:05.574Z,5.4
2017-12-14T11:02:27.553Z,5.43
2017-12-14T11:03:49.273Z,5.46
2017-12-14T11:05:11.264Z,5.48
2017-12-14T11:06:32.956Z,5.48
2017-12-14T11:07:54.955Z,5.4
2017-12-14T11:09:17.236Z,5.4
2017-12-14T11:10:39.224Z,5.3
2017-12-14T11:12:01.465Z,5.2
2017-12-14T11:13:23.226Z,5.15
2017-12-14T11:14:45.248Z,5.15
2017-12-14T11:16:07.027Z,5.25
2017-12-14T11:17:29.333Z,5.28
2017-12-14T11:18:51.144Z,5.2
2017-12-14T11:20:12.847Z,5.22
2017-12-14T11:21:34.644Z,5.21
2017-12-14T11:22:56.112Z,5.18
2017-12-14T11:24:33.040Z,5.21
2017-12-14T11:25:55.214Z,5.12
2017-12-14T11:27:16.915Z,5.17
2017-12-14T11:28:38.748Z,5.17
2017-12-14T11:30:00.445Z,5.07
2017-12-14T11:31:21.852Z,5.1
2017-12-14T11:32:43.550Z,5.03
2017-12-14T11:34:05.232Z,5.03
2017-12-14T11:35:27.473Z,5
2017-12-14T11:36:49.369Z,5.12
2017-12-14T11:38:11.626Z,5.2
2017-12-14T11:39:33.376Z,5.28
2017-12-14T11:40:54.794Z,5.4
2017-12-14T11:42:16.306Z,5.56
2017-12-14T11:43:38.551Z,5.67
2017-12-14T11:45:00.779Z,5.97
2017-12-14T11:46:22.274Z,6.04
2017-12-14T11:47:44.016Z,6.01
2017-12-14T11:49:05.461Z,6.17
2017-12-14T11:50:27.702Z,6.09
2017-12-14T11:51:49.515Z,6.21
2017-12-14T11:53:11.803Z,6.19
2017-12-14T11:54:34.034Z,6.12
2017-12-14T11:55:56.015Z,6.06
2017-12-14T11:57:17.995Z,5.94
2017-12-14T11:58:40.083Z,5.94
2017-12-14T12:00:01.793Z,5.81
2017-12-14T12:01:23.786Z,5.89
2017-12-14T12:02:45.593Z,5.91
2017-12-14T12:04:07.304Z,5.82
2017-12-14T12:05:29.063Z,5.96
2017-12-14T12:06:50.228Z,6
2017-12-14T12:08:12.204Z,5.82
2017-12-14T12:09:33.966Z,5.79
2017-12-14T12:10:55.655Z,5.72
2017-12-14T12:12:17.624Z,5.54
2017-12-14T12:13:39.857Z,5.64
2017-12-14T12:15:01.551Z,5.85
2017-12-14T12:16:23.731Z,5.83
2017-12-14T12:17:45.717Z,5.94
2017-12-14T12:19:07.674Z,6.04
2017-12-14T12:20:29.646Z,6.17
2017-12-14T12:21:51.093Z,6.27
2017-12-14T12:23:12.535Z,6.37
2017-12-14T12:24:34.063Z,6.37
2017-12-14T12:25:55.565Z,6.43
2017-12-14T12:27:17.853Z,6.19
2017-12-14T12:28:39.554Z,6.06
2017-12-14T12:30:01.376Z,6.17
2017-12-14T12:31:22.553Z,6.03
2017-12-14T12:32:44.575Z,6
2017-12-14T12:34:06.296Z,6.01
2017-12-14T12:35:28.032Z,6.08
2017-12-14T12:36:50.096Z,5.99
2017-12-14T12:38:12.105Z,6.11
2017-12-14T12:39:34.354Z,6.09
2017-12-14T12:40:56.646Z,6.09
2017-12-14T12:42:18.724Z,6.09
2017-12-14T12:43:40.985Z,6.09
2017-12-14T12:45:03.287Z,6.08
2017-12-14T12:46:24.766Z,5.99
2017-12-14T12:47:46.484Z,5.99
2017-12-14T12:49:08.462Z,5.97
2017-12-14T12:50:30.732Z,5.86
2017-12-14T12:51:52.436Z,5.85
2017-12-14T12:53:14.127Z,5.79
2017-12-14T12:54:35.667Z,5.79
2017-12-14T12:55:57.946Z,5.81
2017-12-14T12:57:19.383Z,5.99
2017-12-14T12:58:41.354Z,6.03
2017-12-14T13:00:02.795Z,5.96
2017-12-14T13:01:24.784Z,5.91
2017-12-14T13:02:46.483Z,5.81
2017-12-14T13:04:08.202Z,5.78
2017-12-14T13:05:29.914Z,5.74
2017-12-14T13:06:52.003Z,5.75
2017-12-14T13:08:13.793Z,5.65
2017-12-14T13:09:35.816Z,5.75
2017-12-14T13:10:57.796Z,5.71
2017-12-14T13:12:19.206Z,5.71
2017-12-14T13:13:41.492Z,5.72
2017-12-14T13:15:03.785Z,5.71
2017-12-14T13:16:25.558Z,5.78
2017-12-14T13:17:47.532Z,5.79
2017-12-14T13:19:09.496Z,5.74
2017-12-14T13:20:31.591Z,5.75
2017-12-14T13:21:53.641Z,5.76
2017-12-14T13:23:15.966Z,5.82
2017-12-14T13:24:37.754Z,5.82
2017-12-14T13:25:59.721Z,5.9
2017-12-14T13:27:21.682Z,5.97
2017-12-14T13:28:42.977Z,5.96
2017-12-14T13:30:05.334Z,6
2017-12-14T13:31:27.555Z,5.79
2017-12-14T13:32:49.515Z,5.93
2017-12-14T13:34:11.817Z,5.78
2017-12-14T13:35:33.719Z,5.68
2017-12-14T13:36:55.957Z,5.63
2017-12-14T13:38:17.653Z,5.63
2017-12-14T13:39:39.517Z,5.61
2017-12-14T13:41:01.232Z,5.68
2017-12-14T13:42:22.688Z,5.6
2017-12-14T13:43:44.142Z,5.45
2017-12-14T13:45:06.135Z,5.45
2017-12-14T13:46:28.119Z,5.45
2017-12-14T13:47:49.537Z,5.43
2017-12-14T13:49:11.530Z,5.48
2017-12-14T13:50:33.759Z,5.49
2017-12-14T13:51:55.455Z,5.43
2017-12-14T13:53:17.425Z,5.42
2017-12-14T13:54:39.224Z,5.42
2017-12-14T13:56:01.159Z,5.38
2017-12-14T13:57:23.416Z,5.42
2017-12-14T13:58:45.139Z,5.43
2017-12-14T14:00:06.598Z,5.4
2017-12-14T14:01:28.327Z,5.46
2017-12-14T14:02:50.067Z,5.48
2017-12-14T14:04:12.044Z,5.54
2017-12-14T14:05:34.023Z,5.49
2017-12-14T14:06:56.274Z,5.56
2017-12-14T14:08:17.466Z,5.57
2017-12-14T14:09:39.213Z,5.53
2017-12-14T14:11:00.917Z,5.56
2017-12-14T14:12:23.205Z,5.53
2017-12-14T14:13:45.447Z,5.54
2017-12-14T14:15:07.703Z,5.48
2017-12-14T14:16:30.073Z,5.49
2017-12-14T14:17:52.316Z,5.49
2017-12-14T14:19:14.557Z,5.56
2017-12-14T14:20:36.795Z,5.61
2017-12-14T14:21:58.516Z,5.56
2017-12-14T14:23:20.823Z,5.43
2017-12-14T14:24:42.816Z,5.43
2017-12-14T14:26:04.947Z,5.39
2017-12-14T14:27:26.985Z,5.36
2017-12-14T14:28:49.254Z,5.4
2017-12-14T14:30:11.243Z,5.43
2017-12-14T14:31:33.216Z,5.38
2017-12-14T14:32:55.491Z,5.35
2017-12-14T14:34:17.897Z,5.4
2017-12-14T14:35:39.067Z,5.4
2017-12-14T14:37:00.838Z,5.53
2017-12-14T14:38:22.808Z,5.3
2017-12-14T14:39:44.554Z,5.4
2017-12-14T14:41:06.286Z,5.43
2017-12-14T14:42:27.983Z,5.48
2017-12-14T14:43:50.244Z,5.38
2017-12-14T14:45:12.221Z,5.4
2017-12-14T14:46:33.953Z,5.42
2017-12-14T14:47:55.948Z,5.39
2017-12-14T14:49:17.691Z,5.27
2017-12-14T14:50:39.395Z,5.28
2017-12-14T14:52:01.184Z,5.33
2017-12-14T14:53:23.155Z,5.31
2017-12-14T14:54:44.892Z,5.35
2017-12-14T14:56:07.146Z,5.35
2017-12-14T14:57:29.435Z,5.31
2017-12-14T14:58:50.606Z,5.25
2017-12-14T15:00:12.876Z,5.25
2017-12-14T15:01:34.572Z,5.31
2017-12-14T15:02:56.521Z,5.33
2017-12-14T15:04:18.839Z,5.35
2017-12-14T15:05:40.809Z,5.22
2017-12-14T15:07:02.790Z,5.17
2017-12-14T15:08:24.798Z,4.99
2017-12-14T15:09:46.515Z,4.94
2017-12-14T15:11:08.746Z,4.89
2017-12-14T15:12:30.464Z,4.7
2017-12-14T15:13:52.445Z,4.84
2017-12-14T15:15:14.516Z,4.82
2017-12-14T15:16:35.693Z,4.66
2017-12-14T15:17:57.995Z,4.66
2017-12-14T15:19:20.105Z,4.65
2017-12-14T15:20:42.335Z,4.69
2017-12-14T15:22:04.534Z,4.73
2017-12-14T15:23:26.594Z,4.73
2017-12-14T15:24:48.964Z,4.65
2017-12-14T15:26:10.775Z,4.66
2017-12-14T15:27:32.747Z,4.59
2017-12-14T15:28:54.708Z,4.58
2017-12-14T15:30:17.017Z,4.58
2017-12-14T15:31:38.825Z,4.54
2017-12-14T15:33:00.916Z,4.62
2017-12-14T15:34:23.164Z,4.59
2017-12-14T15:35:45.189Z,4.65
2017-12-14T15:37:07.189Z,4.69
2017-12-14T15:38:28.897Z,4.67
2017-12-14T15:39:50.684Z,4.67
2017-12-14T15:41:12.715Z,4.69
2017-12-14T15:42:34.475Z,4.72
2017-12-14T15:43:56.467Z,4.82
2017-12-14T15:45:18.949Z,4.77
2017-12-14T15:46:40.651Z,4.84
2017-12-14T15:48:02.945Z,4.77
2017-12-14T15:49:24.924Z,4.78
2017-12-14T15:50:47.184Z,4.77
2017-12-14T15:52:09.188Z,4.75
2017-12-14T15:53:31.476Z,4.82
2017-12-14T15:54:53.185Z,4.82
2017-12-14T15:56:15.326Z,4.84
2017-12-14T15:57:37.405Z,4.8
2017-12-14T15:58:59.444Z,4.85
2017-12-14T16:00:21.163Z,4.84
2017-12-14T16:01:43.321Z,4.8
2017-12-14T16:03:05.396Z,4.73
2017-12-14T16:04:27.376Z,4.78
2017-12-14T16:05:49.161Z,4.88
2017-12-14T16:07:11.155Z,4.88
2017-12-14T16:08:33.147Z,4.88
2017-12-14T16:09:55.499Z,4.86
2017-12-14T16:11:17.456Z,4.88
2017-12-14T16:12:39.181Z,4.84
2017-12-14T16:14:01.180Z,4.86
2017-12-14T16:15:23.150Z,4.78
2017-12-14T16:16:45.423Z,4.82
2017-12-14T16:18:07.405Z,4.72
2017-12-14T16:19:29.054Z,4.59
2017-12-14T16:20:51.351Z,4.41
2017-12-14T16:22:13.377Z,4.32
2017-12-14T16:23:35.378Z,4.2
2017-12-14T16:24:56.813Z,4.18
2017-12-14T16:26:18.827Z,4.08
2017-12-14T16:27:40.583Z,4.15
2017-12-14T16:29:02.584Z,4.16
2017-12-14T16:30:24.575Z,4.2
2017-12-14T16:31:46.546Z,4.32
2017-12-14T16:33:08.905Z,4.45
2017-12-14T16:34:30.906Z,4.54
2017-12-14T16:35:52.775Z,4.52
2017-12-14T16:37:14.914Z,4.54
2017-12-14T16:38:36.903Z,4.51
2017-12-14T16:39:58.887Z,4.47
2017-12-14T16:41:20.935Z,4.36
2017-12-14T16:42:43.038Z,4.22
2017-12-14T16:44:05.424Z,4.11
2017-12-14T16:45:27.166Z,4.09
2017-12-14T16:46:49.264Z,3.98
2017-12-14T16:48:11.673Z,3.94
2017-12-14T16:49:34.031Z,3.86
2017-12-14T16:50:56.022Z,3.87
2017-12-14T16:52:17.734Z,3.7
2017-12-14T16:53:39.558Z,3.69
2017-12-14T16:55:01.907Z,3.68
2017-12-14T16:56:24.327Z,3.75
2017-12-14T16:57:46.408Z,3.57
2017-12-14T16:59:08.649Z,3.52
2017-12-14T17:00:30.355Z,3.5
2017-12-14T17:01:52.721Z,3.5
2017-12-14T17:03:14.459Z,3.39
2017-12-14T17:04:36.778Z,3.47
2017-12-14T17:05:59.144Z,3.47
2017-12-14T17:07:21.448Z,3.43
2017-12-14T17:08:43.263Z,3.31
2017-12-14T17:10:04.967Z,3.4
2017-12-14T17:11:27.214Z,3.45
2017-12-14T17:12:49.297Z,3.47
2017-12-14T17:14:10.753Z,3.51
2017-12-14T17:15:32.224Z,3.58
2017-12-14T17:16:54.383Z,3.61
2017-12-14T17:18:16.656Z,3.68
2017-12-14T17:19:39.034Z,3.68
2017-12-14T17:21:01.247Z,3.73
2017-12-14T17:22:23.266Z,3.83
2017-12-14T17:23:45.544Z,3.75
2017-12-14T17:25:07.517Z,3.73
2017-12-14T17:26:29.362Z,3.8
2017-12-14T17:27:51.754Z,3.66
2017-12-14T17:29:13.480Z,3.68
2017-12-14T17:30:36.131Z,3.73
2017-12-14T17:31:58.235Z,3.73
2017-12-14T17:33:20.596Z,3.86
2017-12-14T17:34:42.896Z,3.87
2017-12-14T17:36:04.856Z,3.86
2017-12-14T17:37:26.894Z,3.83
2017-12-14T17:38:48.993Z,3.9
2017-12-14T17:40:11.287Z,3.96
2017-12-14T17:41:33.298Z,3.98
2017-12-14T17:42:55.575Z,4.09
2017-12-14T17:44:17.567Z,4.2
2017-12-14T17:45:39.997Z,4.15
2017-12-14T17:47:02.002Z,4.23
2017-12-14T17:48:24.011Z,4.33
2017-12-14T17:49:45.736Z,4.4
2017-12-14T17:51:07.764Z,4.37
2017-12-14T17:52:29.784Z,4.47
2017-12-14T17:53:51.500Z,4.51
2017-12-14T17:55:13.101Z,4.52
2017-12-14T17:56:35.355Z,4.62
2017-12-14T17:57:57.111Z,4.63
2017-12-14T17:59:19.182Z,4.66
2017-12-14T18:00:41.245Z,4.63
2017-12-14T18:02:03.007Z,4.65
2017-12-14T18:03:24.957Z,4.59
2017-12-14T18:04:47.024Z,4.7
2017-12-14T18:06:09.378Z,4.58
2017-12-14T18:07:31.411Z,4.69
2017-12-14T18:08:53.415Z,4.65
2017-12-14T18:10:15.394Z,4.77
2017-12-14T18:11:37.375Z,4.73
2017-12-14T18:12:59.658Z,4.78
2017-12-14T18:14:21.953Z,4.84
2017-12-14T18:15:43.944Z,4.8